createdAt,value
2019-04-10T00:01:01.381Z,97332.75
2019-04-10T00:03:37.039Z,97328.75
2019-04-10T00:06:04.578Z,97330.02
2019-04-10T00:08:34.653Z,97330.52
2019-04-10T00:11:04.871Z,97327.02
2019-04-10T00:13:36.408Z,97326.75
2019-04-10T00:16:07.597Z,97324.93
2019-04-10T00:18:38.002Z,97325.66
2019-04-10T00:21:09.063Z,97329.84
2019-04-10T00:23:39.463Z,97331.64
2019-04-10T00:26:09.951Z,97326.33
2019-04-10T00:28:41.310Z,97326.41
2019-04-10T00:31:11.636Z,97327.58
2019-04-10T00:33:41.610Z,97326.30
2019-04-10T00:36:12.154Z,97323.58
2019-04-10T00:38:42.213Z,97321.72
2019-04-10T00:41:12.264Z,97321.53
2019-04-10T00:43:43.354Z,97319.27
2019-04-10T00:46:13.685Z,97325.93
2019-04-10T00:48:43.983Z,97324.94
2019-04-10T00:51:13.960Z,97319.58
2019-04-10T00:53:43.924Z,97316.44
2019-04-10T00:56:14.564Z,97319.30
2019-04-10T00:58:44.480Z,97313.41
2019-04-10T01:01:15.985Z,97312.94
2019-04-10T01:03:48.043Z,97314.06
2019-04-10T01:06:18.122Z,97311.98
2019-04-10T01:08:48.926Z,97310.02
2019-04-10T01:11:19.245Z,97308.53
2019-04-10T01:13:50.272Z,97305.44
2019-04-10T01:16:20.616Z,97301.38
2019-04-10T01:18:51.252Z,97298.77
2019-04-10T01:21:22.104Z,97301.38
2019-04-10T01:23:53.287Z,97296.48
2019-04-10T01:26:23.412Z,97297.84
2019-04-10T01:28:54.254Z,97300.26
2019-04-10T01:31:24.625Z,97304.51
2019-04-10T01:33:54.785Z,97296.97
2019-04-10T01:36:24.930Z,97298.18
2019-04-10T01:38:54.980Z,97297.50
2019-04-10T01:41:25.847Z,97294.67
2019-04-10T01:43:55.795Z,97288.59
2019-04-10T01:46:26.427Z,97282.39
2019-04-10T01:48:57.437Z,97288.84
2019-04-10T01:51:27.553Z,97283.64
2019-04-10T01:53:58.431Z,97287.63
2019-04-10T01:56:33.692Z,97288.69
2019-04-10T01:59:01.505Z,97290.27
2019-04-10T02:01:40.851Z,97288.63
2019-04-10T02:04:10.945Z,97286.76
2019-04-10T02:06:41.244Z,97283.45
2019-04-10T02:09:11.501Z,97282.08
2019-04-10T02:11:41.878Z,97281.82
2019-04-10T02:14:12.096Z,97278.89
2019-04-10T02:16:43.148Z,97280.36
2019-04-10T02:19:14.188Z,97279.09
2019-04-10T02:21:44.480Z,97283.08
2019-04-10T02:24:14.682Z,97277.03
2019-04-10T02:26:45.633Z,97277.63
2019-04-10T02:29:15.651Z,97278.90
2019-04-10T02:31:46.331Z,97281.94
2019-04-10T02:34:17.232Z,97272.84
2019-04-10T02:36:48.848Z,97277.43
2019-04-10T02:39:27.379Z,97272.18
2019-04-10T02:41:52.279Z,97273.91
2019-04-10T02:44:26.108Z,97270.81
2019-04-10T02:46:57.328Z,97271.78
2019-04-10T02:49:28.024Z,97271.97
2019-04-10T02:51:58.999Z,97270.97
2019-04-10T02:54:29.177Z,97273.10
2019-04-10T02:56:59.135Z,97273.41
2019-04-10T02:59:29.263Z,97276.83
2019-04-10T03:02:00.288Z,97274.97
2019-04-10T03:04:31.190Z,97282.17
2019-04-10T03:07:04.076Z,97277.20
2019-04-10T03:09:49.624Z,97279.81
2019-04-10T03:12:06.294Z,97284.57
2019-04-10T03:14:36.813Z,97275.79
2019-04-10T03:17:07.997Z,97280.77
2019-04-10T03:19:38.028Z,97279.77
2019-04-10T03:22:09.038Z,97271.88
2019-04-10T03:24:40.149Z,97276.08
2019-04-10T03:27:10.255Z,97274.98
2019-04-10T03:29:40.188Z,97281.59
2019-04-10T03:32:31.118Z,97282.20
2019-04-10T03:35:04.296Z,97288.33
2019-04-10T03:37:34.324Z,97280.34
2019-04-10T03:40:04.942Z,97286.49
2019-04-10T03:42:35.265Z,97284.56
2019-04-10T03:45:05.810Z,97287.34
2019-04-10T03:47:36.306Z,97288.48
2019-04-10T03:50:06.726Z,97286.83
2019-04-10T03:52:37.707Z,97287.45
2019-04-10T03:55:08.387Z,97290.15
2019-04-10T03:57:38.608Z,97294.27
2019-04-10T04:00:09.927Z,97292.41
2019-04-10T04:02:40.157Z,97292.01
2019-04-10T04:05:10.675Z,97290.42
2019-04-10T04:07:41.081Z,97290.15
2019-04-10T04:10:12.795Z,97291.19
2019-04-10T04:12:42.848Z,97289.59
2019-04-10T04:15:13.566Z,97290.64
2019-04-10T04:17:44.414Z,97285.28
2019-04-10T04:20:15.191Z,97289.20
2019-04-10T04:22:46.136Z,97292.02
2019-04-10T04:25:17.004Z,97294.59
2019-04-10T04:27:46.996Z,97292.88
2019-04-10T04:30:17.357Z,97293.59
2019-04-10T04:32:48.346Z,97293.66
2019-04-10T04:35:18.363Z,97293.55
2019-04-10T04:37:48.473Z,97290.83
2019-04-10T04:40:19.697Z,97288.64
2019-04-10T04:42:49.694Z,97294.91
2019-04-10T04:45:19.611Z,97294.91
2019-04-10T04:47:50.330Z,97295.95
2019-04-10T04:50:20.401Z,97299.47
2019-04-10T04:52:50.443Z,97304.06
2019-04-10T04:55:21.797Z,97301.16
2019-04-10T04:57:51.825Z,97311.45
2019-04-10T05:00:21.831Z,97311.16
2019-04-10T05:02:53.370Z,97307.19
2019-04-10T05:05:23.629Z,97317.27
2019-04-10T05:07:59.356Z,97320.95
2019-04-10T05:10:25.352Z,97321.82
2019-04-10T05:12:55.438Z,97325.48
2019-04-10T05:15:25.369Z,97329.16
2019-04-10T05:17:55.663Z,97329.16
2019-04-10T05:20:38.738Z,97331.09
2019-04-10T05:22:57.761Z,97338.90
2019-04-10T05:25:27.698Z,97331.95
2019-04-10T05:27:57.702Z,97338.00
2019-04-10T05:30:27.689Z,97332.45
2019-04-10T05:32:57.809Z,97338.90
2019-04-10T05:35:27.860Z,97340.86
2019-04-10T05:37:58.282Z,97337.86
2019-04-10T05:40:28.280Z,97341.58
2019-04-10T05:42:58.239Z,97341.84
2019-04-10T05:45:28.171Z,97342.55
2019-04-10T05:47:59.012Z,97344.77
2019-04-10T05:50:29.903Z,97344.72
2019-04-10T05:53:00.111Z,97344.25
2019-04-10T05:55:30.936Z,97345.23
2019-04-10T05:58:01.634Z,97349.86
2019-04-10T06:00:32.646Z,97350.55
2019-04-10T06:03:02.682Z,97354.30
2019-04-10T06:05:34.174Z,97350.77
2019-04-10T06:08:04.225Z,97361.54
2019-04-10T06:10:34.288Z,97355.20
2019-04-10T06:13:04.706Z,97357.36
2019-04-10T06:15:35.065Z,97359.38
2019-04-10T06:18:05.162Z,97360.50
2019-04-10T06:20:35.468Z,97367.41
2019-04-10T06:23:05.556Z,97367.25
2019-04-10T06:25:36.588Z,97368.39
2019-04-10T06:28:07.398Z,97364.58
2019-04-10T06:30:37.332Z,97361.34
2019-04-10T06:33:07.592Z,97363.72
2019-04-10T06:35:37.791Z,97360.62
2019-04-10T06:38:07.728Z,97366.59
2019-04-10T06:40:37.747Z,97364.42
2019-04-10T06:43:08.621Z,97361.45
2019-04-10T06:45:38.569Z,97359.89
2019-04-10T06:48:08.963Z,97355.81
2019-04-10T06:50:39.263Z,97360.46
2019-04-10T06:53:10.179Z,97359.97
2019-04-10T06:55:40.567Z,97355.77
2019-04-10T06:58:11.609Z,97357.42
2019-04-10T07:00:46.642Z,97359.30
2019-04-10T07:03:13.544Z,97363.00
2019-04-10T07:05:59.675Z,97358.98
2019-04-10T07:08:19.025Z,97360.46
2019-04-10T07:10:54.199Z,97359.58
2019-04-10T07:13:19.723Z,97358.14
2019-04-10T07:15:49.846Z,97361.11
2019-04-10T07:18:21.545Z,97363.77
2019-04-10T07:20:51.913Z,97365.96
2019-04-10T07:23:26.902Z,97369.22
2019-04-10T07:25:54.882Z,97368.12
2019-04-10T07:28:25.680Z,97361.89
2019-04-10T07:30:59.409Z,97361.89
2019-04-10T07:33:28.722Z,97371.61
2019-04-10T07:35:59.248Z,97374.56
2019-04-10T07:38:29.351Z,97377.01
2019-04-10T07:40:59.281Z,97380.15
2019-04-10T07:43:30.587Z,97383.45
2019-04-10T07:46:00.604Z,97383.97
2019-04-10T07:48:31.477Z,97383.30
2019-04-10T07:51:02.751Z,97387.05
2019-04-10T07:53:33.226Z,97386.55
2019-04-10T07:56:07.578Z,97383.36
2019-04-10T07:58:35.493Z,97388.05
2019-04-10T08:01:06.236Z,97380.21
2019-04-10T08:03:37.388Z,97383.34
2019-04-10T08:06:07.402Z,97393.44
2019-04-10T08:08:38.331Z,97384.78
2019-04-10T08:11:09.138Z,97389.48
2019-04-10T08:13:40.713Z,97388.42
2019-04-10T08:16:11.361Z,97393.05
2019-04-10T08:18:41.441Z,97397.19
2019-04-10T08:21:11.409Z,97391.23
2019-04-10T08:23:42.363Z,97399.67
2019-04-10T08:26:12.359Z,97405.48
2019-04-10T08:28:43.317Z,97401.22
2019-04-10T08:31:13.322Z,97401.75
2019-04-10T08:33:44.181Z,97410.98
2019-04-10T08:36:15.089Z,97404.73
2019-04-10T08:38:45.130Z,97406.89
2019-04-10T08:41:15.476Z,97405.84
2019-04-10T08:43:45.974Z,97403.86
2019-04-10T08:46:16.098Z,97406.37
2019-04-10T08:48:47.658Z,97416.24
2019-04-10T08:51:17.690Z,97409.23
2019-04-10T08:53:48.764Z,97409.19
2019-04-10T08:56:18.935Z,97406.09
2019-04-10T08:58:49.773Z,97412.09
2019-04-10T09:01:20.881Z,97409.34
2019-04-10T09:03:51.037Z,97408.94
2019-04-10T09:06:21.066Z,97411.65
2019-04-10T09:08:51.060Z,97406.92
2019-04-10T09:11:26.477Z,97409.16
2019-04-10T09:13:53.317Z,97411.16
2019-04-10T09:16:23.324Z,97410.26
2019-04-10T09:18:53.825Z,97414.92
2019-04-10T09:21:23.909Z,97409.39
2019-04-10T09:23:56.194Z,97415.63
2019-04-10T09:26:26.531Z,97419.56
2019-04-10T09:28:57.087Z,97420.33
2019-04-10T09:31:27.628Z,97409.23
2019-04-10T09:33:57.783Z,97412.31
2019-04-10T09:36:27.711Z,97416.38
2019-04-10T09:38:57.707Z,97419.47
2019-04-10T09:41:28.055Z,97420.89
2019-04-10T09:43:58.295Z,97418.69
2019-04-10T09:46:28.872Z,97424.11
2019-04-10T09:48:58.815Z,97426.11
2019-04-10T09:51:29.658Z,97427.45
2019-04-10T09:53:59.588Z,97427.09
2019-04-10T09:56:29.923Z,97427.53
2019-04-10T09:59:00.807Z,97427.00
2019-04-10T10:01:30.891Z,97422.50
2019-04-10T10:04:01.569Z,97424.78
2019-04-10T10:06:34.886Z,97420.78
2019-04-10T10:09:06.278Z,97420.61
2019-04-10T10:11:37.188Z,97418.74
2019-04-10T10:14:07.676Z,97415.91
2019-04-10T10:16:37.688Z,97422.61
2019-04-10T10:19:07.941Z,97413.87
2019-04-10T10:21:38.835Z,97415.99
2019-04-10T10:24:08.855Z,97422.24
2019-04-10T10:26:39.819Z,97420.71
2019-04-10T10:29:09.816Z,97420.79
2019-04-10T10:31:40.251Z,97418.77
2019-04-10T10:34:10.474Z,97427.24
2019-04-10T10:36:44.440Z,97421.55
2019-04-10T10:39:20.964Z,97420.95
2019-04-10T10:41:51.257Z,97422.54
2019-04-10T10:44:21.796Z,97420.91
2019-04-10T10:46:51.944Z,97420.53
2019-04-10T10:49:22.301Z,97419.70
2019-04-10T10:51:53.305Z,97419.50
2019-04-10T10:54:23.408Z,97420.81
2019-04-10T10:56:53.563Z,97422.52
2019-04-10T10:59:23.545Z,97424.27
2019-04-10T11:01:53.928Z,97432.16
2019-04-10T11:04:23.938Z,97430.58
2019-04-10T11:06:59.590Z,97427.95
2019-04-10T11:09:26.252Z,97425.30
2019-04-10T11:11:56.292Z,97429.05
2019-04-10T11:14:27.591Z,97430.27
2019-04-10T11:16:57.781Z,97428.20
2019-04-10T11:19:28.949Z,97434.50
2019-04-10T11:21:59.130Z,97427.64
2019-04-10T11:24:29.231Z,97426.02
2019-04-10T11:27:00.048Z,97428.84
2019-04-10T11:29:31.488Z,97431.49
2019-04-10T11:32:02.275Z,97426.50
2019-04-10T11:34:34.106Z,97432.95
2019-04-10T11:37:21.648Z,97427.42
2019-04-10T11:39:40.430Z,97430.03
2019-04-10T11:42:09.953Z,97426.23
2019-04-10T11:44:41.916Z,97423.75
2019-04-10T11:47:12.469Z,97423.69
2019-04-10T11:49:43.391Z,97426.77
2019-04-10T11:52:16.958Z,97433.09
2019-04-10T11:54:46.936Z,97427.21
2019-04-10T11:57:20.419Z,97423.72
2019-04-10T11:59:50.377Z,97425.75
2019-04-10T12:02:21.877Z,97434.03
2019-04-10T12:04:55.903Z,97430.70
2019-04-10T12:07:55.113Z,97434.47
2019-04-10T12:12:36.043Z,97431.23
2019-04-10T12:15:07.951Z,97437.59
2019-04-10T12:17:38.161Z,97440.32
2019-04-10T12:20:08.970Z,97438.56
2019-04-10T12:22:38.982Z,97436.47
2019-04-10T12:25:10.145Z,97437.66
2019-04-10T12:27:41.174Z,97444.26
2019-04-10T12:30:11.653Z,97444.36
2019-04-10T12:32:41.657Z,97441.06
2019-04-10T12:35:13.689Z,97450.17
2019-04-10T12:37:43.949Z,97441.48
2019-04-10T12:40:14.465Z,97445.47
2019-04-10T12:42:44.483Z,97448.10
2019-04-10T12:45:15.808Z,97447.03
2019-04-10T12:47:46.019Z,97444.39
2019-04-10T12:50:16.936Z,97447.45
2019-04-10T12:52:47.921Z,97446.79
2019-04-10T12:55:18.660Z,97448.41
2019-04-10T12:57:48.586Z,97446.08
2019-04-10T13:00:23.724Z,97448.19
2019-04-10T13:02:54.516Z,97449.14
2019-04-10T13:05:25.099Z,97449.25
2019-04-10T13:07:56.129Z,97448.63
2019-04-10T13:10:27.350Z,97455.25
2019-04-10T13:12:57.742Z,97445.25
2019-04-10T13:15:27.919Z,97440.61
2019-04-10T13:17:58.495Z,97439.02
2019-04-10T13:20:29.492Z,97449.44
2019-04-10T13:23:00.318Z,97444.45
2019-04-10T13:25:30.338Z,97442.70
2019-04-10T13:28:01.252Z,97445.28
2019-04-10T13:30:44.778Z,97447.69
2019-04-10T13:33:03.157Z,97451.99
2019-04-10T13:35:33.182Z,97448.66
2019-04-10T13:38:03.269Z,97448.81
2019-04-10T13:40:33.430Z,97454.36
2019-04-10T13:43:03.481Z,97450.14
2019-04-10T13:45:33.745Z,97447.91
2019-04-10T13:48:03.978Z,97445.77
2019-04-10T13:50:34.825Z,97445.77
2019-04-10T13:53:05.831Z,97444.05
2019-04-10T13:55:36.737Z,97444.92
2019-04-10T13:58:06.859Z,97447.34
2019-04-10T14:00:40.435Z,97444.25
2019-04-10T14:03:10.503Z,97445.03
2019-04-10T14:05:41.230Z,97449.43
2019-04-10T14:08:12.570Z,97446.03
2019-04-10T14:10:42.724Z,97452.50
2019-04-10T14:13:13.661Z,97452.53
2019-04-10T14:15:44.295Z,97460.20
2019-04-10T14:18:14.490Z,97452.89
2019-04-10T14:20:45.663Z,97457.89
2019-04-10T14:23:28.669Z,97457.42
2019-04-10T14:26:24.521Z,97460.76
2019-04-10T14:28:55.429Z,97459.61
2019-04-10T14:31:28.807Z,97465.10
2019-04-10T14:33:59.276Z,97456.26
2019-04-10T14:36:29.854Z,97460.02
2019-04-10T14:39:10.342Z,97463.53
2019-04-10T14:41:31.774Z,97467.02
2019-04-10T14:44:01.952Z,97471.36
2019-04-10T14:46:32.005Z,97472.18
2019-04-10T14:49:02.862Z,97469.52
2019-04-10T14:51:32.873Z,97466.45
2019-04-10T14:54:03.757Z,97468.86
2019-04-10T14:56:34.507Z,97476.94
2019-04-10T14:59:04.652Z,97468.64
2019-04-10T15:01:35.845Z,97473.65
2019-04-10T15:04:06.189Z,97474.73
2019-04-10T15:06:37.498Z,97477.31
2019-04-10T15:09:23.614Z,97483.88
2019-04-10T15:11:49.020Z,97482.30
2019-04-10T15:14:19.380Z,97477.72
2019-04-10T15:16:55.456Z,97483.34
2019-04-10T15:19:22.641Z,97480.98
2019-04-10T15:21:54.032Z,97484.66
2019-04-10T15:24:24.066Z,97490.16
2019-04-10T15:26:55.502Z,97483.33
2019-04-10T15:29:25.792Z,97493.57
2019-04-10T15:31:55.965Z,97493.78
2019-04-10T15:34:26.143Z,97488.39
2019-04-10T15:36:56.510Z,97493.13
2019-04-10T15:39:34.042Z,97486.16
2019-04-10T15:41:59.488Z,97489.52
2019-04-10T15:44:30.101Z,97488.86
2019-04-10T15:47:10.629Z,97486.84
2019-04-10T15:49:32.504Z,97495.61
2019-04-10T15:52:03.649Z,97489.48
2019-04-10T15:54:34.169Z,97492.12
2019-04-10T15:57:04.669Z,97495.61
2019-04-10T15:59:34.610Z,97492.33
2019-04-10T16:02:05.769Z,97494.63
2019-04-10T16:04:35.935Z,97492.95
2019-04-10T16:07:06.283Z,97494.84
2019-04-10T16:09:46.318Z,97496.12
2019-04-10T16:12:19.267Z,97498.97
2019-04-10T16:14:50.661Z,97496.77
2019-04-10T16:17:43.933Z,97499.19
2019-04-10T16:20:43.105Z,97501.91
2019-04-10T16:23:16.444Z,97499.63
2019-04-10T16:25:52.340Z,97499.20
2019-04-10T16:28:23.126Z,97500.98
2019-04-10T16:30:53.244Z,97504.46
2019-04-10T16:33:23.378Z,97506.31
2019-04-10T16:35:54.505Z,97509.56
2019-04-10T16:38:24.808Z,97513.94
2019-04-10T16:40:54.828Z,97513.64
2019-04-10T16:43:24.966Z,97515.91
2019-04-10T16:45:55.190Z,97515.81
2019-04-10T16:48:26.420Z,97510.14
2019-04-10T16:50:56.615Z,97514.95
2019-04-10T16:53:27.859Z,97511.33
2019-04-10T16:55:59.070Z,97520.06
2019-04-10T16:58:29.147Z,97516.59
2019-04-10T17:01:00.117Z,97523.20
2019-04-10T17:03:30.839Z,97521.93
2019-04-10T17:06:01.865Z,97522.98
2019-04-10T17:08:32.269Z,97530.87
2019-04-10T17:11:04.948Z,97529.80
2019-04-10T17:13:35.555Z,97532.44
2019-04-10T17:16:05.653Z,97536.47
2019-04-10T17:18:35.642Z,97541.07
2019-04-10T17:21:05.799Z,97539.22
2019-04-10T17:23:36.577Z,97546.87
2019-04-10T17:26:06.943Z,97544.41
2019-04-10T17:28:38.732Z,97550.02
2019-04-10T17:31:09.198Z,97546.34
2019-04-10T17:33:39.183Z,97553.08
2019-04-10T17:36:09.844Z,97551.37
2019-04-10T17:38:39.910Z,97557.66
2019-04-10T17:41:11.214Z,97561.68
2019-04-10T17:43:43.354Z,97563.88
2019-04-10T17:46:13.452Z,97563.91
2019-04-10T17:48:44.197Z,97567.09
2019-04-10T17:51:14.412Z,97571.03
2019-04-10T17:53:45.376Z,97575.28
2019-04-10T17:56:15.875Z,97578.91
2019-04-10T17:58:46.076Z,97582.16
2019-04-10T18:01:18.920Z,97579.66
2019-04-10T18:03:53.131Z,97581.49
2019-04-10T18:06:21.436Z,97586.48
2019-04-10T18:08:51.511Z,97587.09
2019-04-10T18:11:22.391Z,97593.94
2019-04-10T18:13:53.074Z,97596.35
2019-04-10T18:16:23.441Z,97605.20
2019-04-10T18:18:53.843Z,97606.93
2019-04-10T18:21:24.613Z,97606.75
2019-04-10T18:23:55.764Z,97612.50
2019-04-10T18:26:25.911Z,97614.09
2019-04-10T18:28:56.162Z,97617.64
2019-04-10T18:31:27.869Z,97625.89
2019-04-10T18:33:58.723Z,97627.66
2019-04-10T18:36:29.875Z,97632.40
2019-04-10T18:38:59.812Z,97632.13
2019-04-10T18:41:30.400Z,97635.45
2019-04-10T18:44:00.570Z,97639.38
2019-04-10T18:46:31.254Z,97648.42
2019-04-10T18:49:01.211Z,97647.69
2019-04-10T18:51:32.047Z,97649.58
2019-04-10T18:54:02.321Z,97649.20
2019-04-10T18:56:33.442Z,97652.63
2019-04-10T18:59:17.105Z,97656.66
2019-04-10T19:02:13.674Z,97660.78
2019-04-10T19:04:49.455Z,97662.55
2019-04-10T19:07:19.509Z,97662.36
2019-04-10T19:09:49.498Z,97665.42
2019-04-10T19:12:19.488Z,97670.41
2019-04-10T19:14:50.796Z,97669.72
2019-04-10T19:17:21.232Z,97669.44
2019-04-10T19:19:52.427Z,97670.79
2019-04-10T19:22:22.517Z,97671.28
2019-04-10T19:24:54.380Z,97670.69
2019-04-10T19:27:25.641Z,97673.73
2019-04-10T19:29:56.985Z,97677.74
2019-04-10T19:32:33.293Z,97676.69
2019-04-10T19:35:04.685Z,97680.31
2019-04-10T19:37:34.765Z,97681.78
2019-04-10T19:40:06.905Z,97687.94
2019-04-10T19:42:37.653Z,97684.91
2019-04-10T19:45:08.072Z,97686.18
2019-04-10T19:47:38.842Z,97692.45
2019-04-10T19:50:09.481Z,97691.09
2019-04-10T19:52:40.333Z,97697.26
2019-04-10T19:55:11.427Z,97696.47
2019-04-10T19:57:43.457Z,97697.83
2019-04-10T20:00:14.551Z,97693.92
2019-04-10T20:02:44.697Z,97698.62
2019-04-10T20:05:15.005Z,97699.50
2019-04-10T20:07:45.064Z,97702.85
2019-04-10T20:10:15.773Z,97703.03
2019-04-10T20:12:45.727Z,97708.53
2019-04-10T20:15:15.833Z,97702.72
2019-04-10T20:17:46.398Z,97708.59
2019-04-10T20:20:17.304Z,97707.60
2019-04-10T20:22:48.019Z,97717.32
2019-04-10T20:25:18.520Z,97714.67
2019-04-10T20:27:48.556Z,97713.48
2019-04-10T20:30:19.982Z,97715.36
2019-04-10T20:32:50.231Z,97710.16
2019-04-10T20:35:20.754Z,97719.74
2019-04-10T20:37:51.253Z,97722.39
2019-04-10T20:40:22.143Z,97724.45
2019-04-10T20:42:52.329Z,97722.29
2019-04-10T20:45:23.282Z,97723.98
2019-04-10T20:47:53.538Z,97722.77
2019-04-10T20:50:23.895Z,97720.44
2019-04-10T20:52:54.338Z,97720.06
2019-04-10T20:55:24.405Z,97718.68
2019-04-10T20:57:54.408Z,97722.79
2019-04-10T21:00:30.846Z,97723.55
2019-04-10T21:03:00.791Z,97722.63
2019-04-10T21:05:31.691Z,97723.39
2019-04-10T21:08:02.125Z,97726.33
2019-04-10T21:10:33.216Z,97728.00
2019-04-10T21:13:04.418Z,97734.01
2019-04-10T21:15:35.466Z,97738.45
2019-04-10T21:18:06.890Z,97738.02
2019-04-10T21:20:36.818Z,97742.03
2019-04-10T21:23:06.882Z,97738.89
2019-04-10T21:25:37.787Z,97738.28
2019-04-10T21:28:07.735Z,97741.72
2019-04-10T21:30:48.717Z,97741.45
2019-04-10T21:33:25.631Z,97736.90
2019-04-10T21:35:55.569Z,97743.12
2019-04-10T21:38:25.571Z,97741.45
2019-04-10T21:40:55.563Z,97742.83
2019-04-10T21:43:26.215Z,97752.09
2019-04-10T21:45:57.413Z,97750.45
2019-04-10T21:48:27.560Z,97749.95
2019-04-10T21:50:58.160Z,97753.11
2019-04-10T21:53:28.672Z,97749.42
2019-04-10T21:55:59.970Z,97750.94
2019-04-10T21:58:30.415Z,97749.84
2019-04-10T22:01:07.638Z,97753.52
2019-04-10T22:03:38.191Z,97754.50
2019-04-10T22:06:17.718Z,97759.50
2019-04-10T22:08:58.314Z,97758.20
2019-04-10T22:11:29.479Z,97759.89
2019-04-10T22:14:00.448Z,97764.66
2019-04-10T22:16:30.556Z,97762.23
2019-04-10T22:19:01.604Z,97755.57
2019-04-10T22:21:31.491Z,97760.68
2019-04-10T22:24:02.242Z,97765.27
2019-04-10T22:26:32.237Z,97772.80
2019-04-10T22:29:03.414Z,97773.48
2019-04-10T22:31:35.489Z,97776.92
2019-04-10T22:34:05.629Z,97779.09
2019-04-10T22:36:35.709Z,97790.57
2019-04-10T22:39:08.918Z,97787.67
2019-04-10T22:41:39.236Z,97792.33
2019-04-10T22:44:09.735Z,97787.78
2019-04-10T22:46:40.462Z,97794.21
2019-04-10T22:49:10.593Z,97793.97
2019-04-10T22:51:40.532Z,97790.16
2019-04-10T22:54:11.831Z,97793.72
2019-04-10T22:56:42.290Z,97789.26
2019-04-10T22:59:13.589Z,97796.63
2019-04-10T23:01:43.681Z,97797.48
2019-04-10T23:04:14.234Z,97795.11
2019-04-10T23:06:45.093Z,97792.19
2019-04-10T23:09:15.876Z,97785.90
2019-04-10T23:11:46.898Z,97793.06
2019-04-10T23:14:17.059Z,97799.63
2019-04-10T23:16:46.982Z,97794.75
2019-04-10T23:19:18.154Z,97798.52
2019-04-10T23:21:49.126Z,97809.91
2019-04-10T23:24:19.153Z,97801.75
2019-04-10T23:26:49.332Z,97808.94
2019-04-10T23:29:20.166Z,97812.64
2019-04-10T23:31:50.194Z,97812.12
2019-04-10T23:34:20.917Z,97820.38
2019-04-10T23:36:50.892Z,97826.82
2019-04-10T23:39:21.850Z,97827.25
2019-04-10T23:41:52.507Z,97827.38
2019-04-10T23:44:22.712Z,97831.47
2019-04-10T23:46:53.541Z,97833.61
2019-04-10T23:49:23.699Z,97827.14
2019-04-10T23:51:53.704Z,97831.78
2019-04-10T23:54:24.915Z,97840.00
2019-04-10T23:56:55.255Z,97834.50
2019-04-10T23:59:25.291Z,97838.38
